Time;durP1;ratioP1;P1;durP2;ratioP2;P2;SDS_P1;SDS_P2;PMS_P1;PMS_P2;Temp;Humidity;BMP_temperature;BMP_pressure;BME280_temperature;BME280_humidity;BME280_pressure;Samples;Min_cycle;Max_cycle;Signal;HPM_P1;HPM_P2
2021/10/02 00:31:51;;;;;;;;;;;14.50;99.90;;;;;;1816656;77;20172;-72
2021/10/02 00:37:03;;;;;;;;;;;14.50;99.90;;;;;;1811660;77;20174;-71
2021/10/02 00:44:53;;;;;;;;;;;14.50;99.90;;;;;;1813713;77;20222;-71
2021/10/02 00:47:21;;;;;;;;;;;14.50;99.90;;;;;;1815665;77;20117;-70
2021/10/02 00:49:48;;;;;;;;;;;14.60;99.90;;;;;;1815873;77;20171;-70
2021/10/02 00:52:16;;;;;;;;;;;14.60;99.90;;;;;;1814576;77;20196;-70
2021/10/02 00:54:44;;;;;;;;;;;14.60;99.90;;;;;;1871406;74;20126;-72
2021/10/02 00:57:11;;;;;;;;;;;14.60;99.90;;;;;;1899628;75;20166;-72
2021/10/02 00:59:38;;;;;;;;;;;14.60;99.90;;;;;;1899371;75;20128;-72
2021/10/02 01:02:14;;;;;;;;;;;14.60;99.90;;;;;;1898900;75;20462;-72
2021/10/02 01:04:42;;;;;;;;;;;14.50;99.90;;;;;;1876778;75;20182;-72
2021/10/02 01:07:22;;;;;;;;;;;14.50;99.90;;;;;;1867575;75;20202;-72
2021/10/02 01:09:58;;;;;;;;;;;14.50;99.90;;;;;;1871125;75;20183;-72
2021/10/02 01:12:29;;;;;;;;;;;14.50;99.90;;;;;;1868295;75;20162;-72
2021/10/02 01:15:00;;;;;;;;;;;14.40;99.90;;;;;;1866991;75;20104;-71
2021/10/02 01:17:35;;;;;;;;;;;14.40;99.90;;;;;;1869523;75;20167;-72
2021/10/02 01:20:04;;;;;;;;;;;14.30;99.90;;;;;;1868058;75;20194;-72
2021/10/02 01:22:48;;;;;;;;;;;14.30;99.90;;;;;;1872136;75;20167;-72
2021/10/02 01:25:22;;;;;;;;;;;14.40;99.90;;;;;;1870341;75;20124;-72
2021/10/02 01:28:06;;;;;;;;;;;14.30;99.90;;;;;;1867950;75;20185;-71
2021/10/02 01:33:29;;;;;;;;;;;14.30;99.90;;;;;;1864823;75;20183;-71
2021/10/02 01:47:09;;;;;;;;;;;14.40;99.90;;;;;;1794008;76;20167;-72
2021/10/02 01:49:08;;;;;;;;;;;14.40;99.90;;;;;;1868283;75;20225;-72
2021/10/02 01:51:37;;;;;;;;;;;14.40;99.90;;;;;;1871267;75;20107;-72
2021/10/02 01:54:04;;;;;;;;;;;14.50;99.90;;;;;;1869310;75;20152;-72
2021/10/02 01:56:31;;;;;;;;;;;14.50;99.90;;;;;;1867704;75;20209;-72
2021/10/02 01:58:59;;;;;;;;;;;14.50;99.90;;;;;;1872478;75;20185;-72
2021/10/02 02:01:26;;;;;;;;;;;14.50;99.90;;;;;;1872578;75;20164;-70
2021/10/02 02:03:56;;;;;;;;;;;14.50;99.90;;;;;;1872076;75;20253;-72
2021/10/02 02:06:26;;;;;;;;;;;14.50;99.90;;;;;;1869408;75;20480;-72
2021/10/02 02:08:55;;;;;;;;;;;14.50;99.90;;;;;;1869616;75;20246;-71
2021/10/02 02:11:22;;;;;;;;;;;14.50;99.90;;;;;;1867337;75;20156;-72
2021/10/02 02:13:50;;;;;;;;;;;14.50;99.90;;;;;;1868407;75;20219;-72
2021/10/02 02:16:17;;;;;;;;;;;14.50;99.90;;;;;;1868252;75;20119;-72
2021/10/02 02:18:44;;;;;;;;;;;14.60;99.90;;;;;;1868996;75;20789;-71
2021/10/02 02:21:12;;;;;;;;;;;14.50;99.90;;;;;;1867897;75;20207;-72
2021/10/02 02:23:39;;;;;;;;;;;14.60;99.90;;;;;;1871030;75;20463;-72
2021/10/02 02:26:08;;;;;;;;;;;14.50;99.90;;;;;;1870321;75;20988;-72
2021/10/02 02:28:36;;;;;;;;;;;14.50;99.90;;;;;;1868340;75;20186;-71
2021/10/02 02:31:04;;;;;;;;;;;14.50;99.90;;;;;;1871217;75;20218;-72
2021/10/02 02:33:31;;;;;;;;;;;14.60;99.90;;;;;;1872447;75;20187;-72
2021/10/02 02:35:58;;;;;;;;;;;14.60;99.90;;;;;;1870870;75;20121;-72
2021/10/02 02:38:25;;;;;;;;;;;14.60;99.90;;;;;;1865676;75;20168;-72
2021/10/02 02:40:52;;;;;;;;;;;14.60;99.90;;;;;;1867489;75;20233;-72
2021/10/02 02:43:19;;;;;;;;;;;14.60;99.90;;;;;;1863352;75;20217;-72
2021/10/02 02:45:50;;;;;;;;;;;14.60;99.90;;;;;;1868511;75;20237;-72
2021/10/02 02:48:21;;;;;;;;;;;14.60;99.90;;;;;;1870163;75;20183;-72
2021/10/02 02:51:05;;;;;;;;;;;14.60;99.90;;;;;;1869614;75;20124;-72
2021/10/02 02:53:33;;;;;;;;;;;14.60;99.90;;;;;;1873587;75;20204;-72
2021/10/02 02:56:04;;;;;;;;;;;14.60;99.90;;;;;;1870623;75;20187;-72
2021/10/02 02:58:32;;;;;;;;;;;14.60;99.90;;;;;;1864076;75;20172;-72
2021/10/02 03:01:01;;;;;;;;;;;14.50;99.90;;;;;;1870257;75;20218;-72
2021/10/02 03:03:29;;;;;;;;;;;14.60;99.90;;;;;;1867108;75;20226;-72
2021/10/02 03:05:57;;;;;;;;;;;14.50;99.90;;;;;;1868763;75;20183;-72
2021/10/02 03:08:25;;;;;;;;;;;14.60;99.90;;;;;;1866945;75;20228;-72
2021/10/02 03:10:53;;;;;;;;;;;14.60;99.90;;;;;;1870258;75;20513;-71
2021/10/02 03:13:21;;;;;;;;;;;14.50;99.90;;;;;;1869828;75;20519;-72
2021/10/02 03:15:48;;;;;;;;;;;14.50;99.90;;;;;;1868756;75;20179;-72
2021/10/02 03:18:17;;;;;;;;;;;14.50;99.90;;;;;;1867736;75;20128;-72
2021/10/02 03:20:44;;;;;;;;;;;14.50;99.90;;;;;;1867353;75;20551;-72
2021/10/02 03:23:11;;;;;;;;;;;14.50;99.90;;;;;;1870903;75;20459;-72
2021/10/02 03:25:38;;;;;;;;;;;14.60;99.90;;;;;;1868173;75;20218;-72
2021/10/02 03:28:05;;;;;;;;;;;14.60;99.90;;;;;;1871221;75;20115;-72
2021/10/02 03:30:32;;;;;;;;;;;14.50;99.90;;;;;;1867735;75;20181;-72
2021/10/02 03:32:59;;;;;;;;;;;14.50;99.90;;;;;;1872077;75;20166;-72
2021/10/02 03:35:26;;;;;;;;;;;14.50;99.90;;;;;;1868808;75;20179;-72
2021/10/02 03:37:53;;;;;;;;;;;14.60;99.90;;;;;;1872195;75;20113;-72
2021/10/02 03:40:21;;;;;;;;;;;14.60;99.90;;;;;;1871755;75;20176;-72
2021/10/02 03:42:49;;;;;;;;;;;14.60;99.90;;;;;;1872903;75;20128;-72
2021/10/02 03:45:17;;;;;;;;;;;14.60;99.90;;;;;;1869908;75;20146;-72
2021/10/02 03:47:43;;;;;;;;;;;14.60;99.90;;;;;;1870907;75;20153;-72
2021/10/02 03:50:11;;;;;;;;;;;14.50;99.90;;;;;;1865983;75;20214;-72
2021/10/02 03:52:38;;;;;;;;;;;14.50;99.90;;;;;;1871032;75;20125;-72
2021/10/02 03:55:06;;;;;;;;;;;14.50;99.90;;;;;;1867683;75;20216;-72
2021/10/02 03:57:32;;;;;;;;;;;14.50;99.90;;;;;;1869689;75;20167;-71
2021/10/02 03:59:59;;;;;;;;;;;14.50;99.90;;;;;;1872689;75;20474;-72
2021/10/02 04:02:26;;;;;;;;;;;14.50;99.90;;;;;;1868115;75;20241;-72
2021/10/02 04:04:53;;;;;;;;;;;14.50;99.90;;;;;;1868876;75;20460;-72
2021/10/02 04:07:20;;;;;;;;;;;14.50;99.90;;;;;;1867053;75;20136;-72
2021/10/02 04:09:46;;;;;;;;;;;14.40;99.90;;;;;;1869103;75;20757;-72
2021/10/02 04:12:13;;;;;;;;;;;14.40;99.90;;;;;;1872073;75;20178;-72
2021/10/02 04:14:40;;;;;;;;;;;14.40;99.90;;;;;;1869136;75;20379;-72
2021/10/02 04:17:07;;;;;;;;;;;14.30;99.90;;;;;;1871610;75;20485;-72
2021/10/02 04:19:34;;;;;;;;;;;14.40;99.90;;;;;;1866958;75;20175;-72
2021/10/02 04:22:01;;;;;;;;;;;14.40;99.90;;;;;;1870341;75;20248;-72
2021/10/02 04:24:28;;;;;;;;;;;14.40;99.90;;;;;;1867261;75;20171;-72
2021/10/02 04:26:59;;;;;;;;;;;14.30;99.90;;;;;;1870830;75;20195;-72
2021/10/02 04:29:23;;;;;;;;;;;14.40;99.90;;;;;;1870644;75;20183;-72
2021/10/02 04:31:50;;;;;;;;;;;14.40;99.90;;;;;;1872781;75;20131;-71
2021/10/02 04:34:17;;;;;;;;;;;14.40;99.90;;;;;;1870682;75;20214;-72
2021/10/02 04:36:44;;;;;;;;;;;14.40;99.90;;;;;;1868690;75;20476;-71
2021/10/02 04:39:11;;;;;;;;;;;14.40;99.90;;;;;;1877014;75;20210;-72
2021/10/02 04:41:37;;;;;;;;;;;14.40;99.90;;;;;;1868654;75;20203;-71
2021/10/02 04:44:04;;;;;;;;;;;14.40;99.90;;;;;;1867822;75;20172;-72
2021/10/02 04:46:31;;;;;;;;;;;14.40;99.90;;;;;;1869451;75;20154;-72
2021/10/02 04:48:58;;;;;;;;;;;14.40;99.90;;;;;;1871773;75;20206;-72
2021/10/02 04:51:25;;;;;;;;;;;14.30;99.90;;;;;;1873225;75;20223;-72
2021/10/02 04:53:52;;;;;;;;;;;14.40;99.90;;;;;;1869684;75;20185;-72
2021/10/02 04:56:20;;;;;;;;;;;14.40;99.90;;;;;;1868958;75;20175;-72
2021/10/02 04:58:47;;;;;;;;;;;14.30;99.90;;;;;;1866400;75;20116;-72
2021/10/02 05:01:14;;;;;;;;;;;14.30;99.90;;;;;;1869332;75;20169;-72
2021/10/02 05:03:41;;;;;;;;;;;14.30;99.90;;;;;;1867502;75;20225;-72
2021/10/02 05:06:08;;;;;;;;;;;14.40;99.90;;;;;;1873544;75;20203;-71
2021/10/02 05:08:36;;;;;;;;;;;14.40;99.90;;;;;;1871918;75;20209;-72
2021/10/02 05:11:03;;;;;;;;;;;14.40;99.90;;;;;;1871502;75;20195;-72
2021/10/02 05:13:32;;;;;;;;;;;14.40;99.90;;;;;;1866862;75;20143;-72
2021/10/02 05:15:58;;;;;;;;;;;14.40;99.90;;;;;;1868231;75;20446;-72
2021/10/02 05:18:25;;;;;;;;;;;14.30;99.90;;;;;;1868623;75;20216;-72
2021/10/02 05:20:52;;;;;;;;;;;14.30;99.90;;;;;;1870293;75;20208;-72
2021/10/02 05:23:19;;;;;;;;;;;14.40;99.90;;;;;;1872078;75;20182;-72
2021/10/02 05:25:46;;;;;;;;;;;14.40;99.90;;;;;;1872462;75;20233;-72
2021/10/02 05:28:12;;;;;;;;;;;14.40;99.90;;;;;;1870662;75;20218;-72
2021/10/02 05:30:39;;;;;;;;;;;14.40;99.90;;;;;;1870282;75;20205;-72
2021/10/02 05:33:06;;;;;;;;;;;14.40;99.90;;;;;;1872493;75;20105;-72
2021/10/02 05:35:33;;;;;;;;;;;14.30;99.90;;;;;;1869000;75;20183;-72
2021/10/02 05:38:01;;;;;;;;;;;14.30;99.90;;;;;;1869875;75;20177;-72
2021/10/02 05:40:28;;;;;;;;;;;14.30;99.90;;;;;;1866792;75;20126;-72
2021/10/02 05:42:55;;;;;;;;;;;14.20;99.90;;;;;;1871441;75;20175;-72
2021/10/02 05:45:22;;;;;;;;;;;14.20;99.90;;;;;;1873163;75;20184;-72
2021/10/02 05:47:48;;;;;;;;;;;14.30;99.90;;;;;;1873590;75;20445;-72
2021/10/02 05:50:15;;;;;;;;;;;14.30;99.90;;;;;;1871858;75;20218;-72
2021/10/02 05:52:42;;;;;;;;;;;14.40;99.90;;;;;;1870988;75;20440;-72
2021/10/02 05:55:10;;;;;;;;;;;14.40;99.90;;;;;;1869001;75;20464;-72
2021/10/02 05:57:37;;;;;;;;;;;14.30;99.90;;;;;;1872202;75;20282;-73
2021/10/02 06:00:05;;;;;;;;;;;14.30;99.90;;;;;;1868167;75;20187;-72
2021/10/02 06:02:31;;;;;;;;;;;14.30;99.90;;;;;;1871872;75;20191;-72
2021/10/02 06:04:58;;;;;;;;;;;14.40;99.90;;;;;;1869851;75;20112;-72
2021/10/02 06:07:25;;;;;;;;;;;14.40;99.90;;;;;;1866845;75;20117;-72
2021/10/02 06:09:52;;;;;;;;;;;14.30;99.90;;;;;;1870596;75;20148;-72
2021/10/02 06:12:19;;;;;;;;;;;14.20;99.90;;;;;;1869965;75;20127;-72
2021/10/02 06:14:46;;;;;;;;;;;14.30;99.90;;;;;;1866569;75;20175;-72
2021/10/02 06:17:13;;;;;;;;;;;14.30;99.90;;;;;;1864443;75;20449;-72
2021/10/02 06:19:39;;;;;;;;;;;14.30;99.90;;;;;;1868470;75;20190;-72
2021/10/02 06:22:06;;;;;;;;;;;14.30;99.90;;;;;;1869205;75;20187;-72
2021/10/02 06:24:34;;;;;;;;;;;14.40;99.90;;;;;;1870549;75;20175;-72
2021/10/02 06:27:01;;;;;;;;;;;14.40;99.90;;;;;;1867777;75;20155;-72
2021/10/02 06:29:28;;;;;;;;;;;14.30;99.90;;;;;;1869093;75;20175;-72
2021/10/02 06:31:54;;;;;;;;;;;14.30;99.90;;;;;;1869187;75;20511;-72
2021/10/02 06:34:21;;;;;;;;;;;14.30;99.90;;;;;;1868870;75;20165;-72
2021/10/02 06:36:48;;;;;;;;;;;14.40;99.90;;;;;;1869195;75;20449;-72
2021/10/02 06:39:15;;;;;;;;;;;14.40;99.90;;;;;;1869373;75;20188;-72
2021/10/02 06:41:42;;;;;;;;;;;14.50;99.90;;;;;;1868936;75;20214;-72
2021/10/02 06:44:11;;;;;;;;;;;14.50;99.90;;;;;;1870481;75;20177;-72
2021/10/02 06:46:37;;;;;;;;;;;14.50;99.90;;;;;;1872308;75;20165;-72
2021/10/02 06:49:04;;;;;;;;;;;14.50;99.90;;;;;;1872423;75;20182;-72
2021/10/02 06:51:31;;;;;;;;;;;14.50;99.90;;;;;;1870532;75;20189;-72
2021/10/02 06:53:57;;;;;;;;;;;14.50;99.90;;;;;;1874334;73;20525;-71
2021/10/02 06:56:24;;;;;;;;;;;14.50;99.90;;;;;;1910754;75;20164;-71
2021/10/02 06:58:51;;;;;;;;;;;14.50;99.90;;;;;;1907070;75;20177;-71
2021/10/02 07:01:18;;;;;;;;;;;14.50;99.90;;;;;;1913434;74;20185;-71
2021/10/02 07:03:45;;;;;;;;;;;14.50;99.90;;;;;;1904506;75;20170;-71
2021/10/02 07:06:20;;;;;;;;;;;14.40;99.90;;;;;;1878336;75;20123;-71
2021/10/02 07:08:47;;;;;;;;;;;14.50;99.90;;;;;;1877356;75;20175;-72
2021/10/02 07:11:14;;;;;;;;;;;14.50;99.90;;;;;;1880241;75;20159;-72
2021/10/02 07:13:41;;;;;;;;;;;14.40;99.90;;;;;;1874428;75;20165;-71
2021/10/02 07:16:07;;;;;;;;;;;14.50;99.90;;;;;;1875358;75;20185;-72
2021/10/02 07:18:34;;;;;;;;;;;14.50;99.90;;;;;;1876880;75;20480;-72
2021/10/02 07:21:01;;;;;;;;;;;14.50;99.90;;;;;;1874938;75;20254;-72
2021/10/02 07:23:29;;;;;;;;;;;14.50;99.90;;;;;;1872329;75;20467;-72
2021/10/02 07:25:57;;;;;;;;;;;14.50;99.90;;;;;;1874620;75;20222;-71
2021/10/02 07:28:23;;;;;;;;;;;14.50;99.90;;;;;;1874458;75;20220;-71
2021/10/02 07:30:50;;;;;;;;;;;14.60;99.90;;;;;;1873129;75;20252;-71
2021/10/02 07:33:17;;;;;;;;;;;14.60;99.90;;;;;;1876389;76;20245;-70
2021/10/02 07:35:44;;;;;;;;;;;14.70;99.90;;;;;;1877821;75;20457;-71
2021/10/02 07:38:11;;;;;;;;;;;14.60;99.90;;;;;;1874155;75;20186;-71
2021/10/02 07:40:38;;;;;;;;;;;14.60;99.90;;;;;;1877382;75;20189;-71
2021/10/02 07:43:05;;;;;;;;;;;14.60;99.90;;;;;;1872617;75;20255;-71
2021/10/02 07:45:33;;;;;;;;;;;14.60;99.90;;;;;;1874906;75;20167;-71
2021/10/02 07:48:00;;;;;;;;;;;14.60;99.90;;;;;;1875615;75;20179;-71
2021/10/02 07:50:28;;;;;;;;;;;14.60;99.90;;;;;;1875821;75;20129;-70
2021/10/02 07:52:55;;;;;;;;;;;14.70;99.90;;;;;;1875750;76;20197;-71
2021/10/02 07:55:22;;;;;;;;;;;14.70;99.90;;;;;;1878950;75;20335;-71
2021/10/02 07:57:49;;;;;;;;;;;14.70;99.90;;;;;;1876627;75;20230;-71
2021/10/02 08:00:17;;;;;;;;;;;14.70;99.90;;;;;;1875568;75;20135;-71
2021/10/02 08:02:44;;;;;;;;;;;14.70;99.90;;;;;;1878476;75;20186;-72
2021/10/02 08:05:11;;;;;;;;;;;14.70;99.90;;;;;;1876306;75;20202;-71
2021/10/02 08:07:42;;;;;;;;;;;14.80;99.90;;;;;;1878942;75;20230;-70
2021/10/02 08:10:10;;;;;;;;;;;14.70;99.90;;;;;;1876931;75;20439;-70
2021/10/02 08:12:37;;;;;;;;;;;14.70;99.90;;;;;;1873689;75;20478;-71
2021/10/02 08:15:04;;;;;;;;;;;14.70;99.90;;;;;;1879563;75;20517;-71
2021/10/02 08:17:32;;;;;;;;;;;14.80;99.90;;;;;;1874135;75;20452;-70
2021/10/02 08:20:00;;;;;;;;;;;14.70;99.90;;;;;;1876740;75;20210;-71
2021/10/02 08:22:28;;;;;;;;;;;14.70;99.90;;;;;;1877640;75;20179;-71
2021/10/02 08:24:55;;;;;;;;;;;14.70;99.90;;;;;;1875656;75;20483;-71
2021/10/02 08:27:22;;;;;;;;;;;14.70;99.90;;;;;;1877020;75;20234;-71
2021/10/02 08:29:50;;;;;;;;;;;14.80;99.90;;;;;;1873796;75;20178;-71
2021/10/02 08:32:17;;;;;;;;;;;14.90;99.90;;;;;;1872258;75;20197;-71
2021/10/02 08:34:44;;;;;;;;;;;14.80;99.90;;;;;;1873921;75;20181;-71
2021/10/02 08:37:11;;;;;;;;;;;14.80;99.90;;;;;;1876326;75;20224;-70
2021/10/02 08:39:37;;;;;;;;;;;14.80;99.90;;;;;;1877482;75;20203;-70
2021/10/02 08:42:04;;;;;;;;;;;14.90;99.90;;;;;;1878010;75;20253;-71
2021/10/02 08:44:32;;;;;;;;;;;14.80;99.90;;;;;;1880354;75;20514;-70
2021/10/02 08:47:02;;;;;;;;;;;14.80;99.90;;;;;;1874912;75;20469;-71
2021/10/02 08:49:29;;;;;;;;;;;14.90;99.90;;;;;;1875010;75;20159;-72
2021/10/02 08:51:57;;;;;;;;;;;14.90;99.90;;;;;;1875614;75;20246;-72
2021/10/02 08:54:24;;;;;;;;;;;14.90;99.90;;;;;;1877593;75;20184;-71
2021/10/02 08:56:52;;;;;;;;;;;15.00;99.90;;;;;;1878007;75;20114;-72
2021/10/02 08:59:22;;;;;;;;;;;15.00;99.90;;;;;;1877670;75;20158;-72
2021/10/02 09:01:49;;;;;;;;;;;15.10;99.90;;;;;;1870148;75;20131;-71
2021/10/02 09:04:16;;;;;;;;;;;15.10;99.90;;;;;;1877834;75;20158;-72
2021/10/02 09:06:43;;;;;;;;;;;15.10;99.90;;;;;;1872547;75;20156;-72
2021/10/02 09:09:10;;;;;;;;;;;15.10;99.90;;;;;;1878313;75;20168;-71
2021/10/02 09:11:37;;;;;;;;;;;15.20;99.90;;;;;;1879115;75;20132;-72
2021/10/02 09:14:04;;;;;;;;;;;15.30;99.90;;;;;;1877130;75;20157;-71
2021/10/02 09:16:30;;;;;;;;;;;15.30;99.90;;;;;;1877803;75;20185;-72
2021/10/02 09:18:58;;;;;;;;;;;15.30;99.90;;;;;;1874280;75;20401;-72
2021/10/02 09:21:24;;;;;;;;;;;15.40;99.90;;;;;;1879318;75;20194;-72
2021/10/02 09:23:51;;;;;;;;;;;15.40;99.90;;;;;;1876089;75;20135;-72
2021/10/02 09:26:20;;;;;;;;;;;15.50;99.90;;;;;;1880083;75;20213;-72
2021/10/02 09:28:48;;;;;;;;;;;15.50;99.90;;;;;;1868369;75;20456;-72
2021/10/02 09:31:19;;;;;;;;;;;15.50;99.90;;;;;;1877445;75;20205;-72
2021/10/02 09:33:46;;;;;;;;;;;15.50;99.90;;;;;;1880454;75;20181;-72
2021/10/02 09:36:21;;;;;;;;;;;15.40;99.90;;;;;;1879327;75;20197;-72
2021/10/02 09:38:54;;;;;;;;;;;15.50;99.90;;;;;;1878990;75;20170;-72
2021/10/02 09:41:22;;;;;;;;;;;15.50;99.90;;;;;;1881445;75;20212;-71
2021/10/02 09:43:49;;;;;;;;;;;15.50;99.90;;;;;;1880741;75;20254;-70
2021/10/02 09:46:16;;;;;;;;;;;15.50;99.90;;;;;;1878075;75;20421;-71
2021/10/02 09:48:45;;;;;;;;;;;15.50;99.90;;;;;;1874930;75;20482;-70
2021/10/02 09:51:13;;;;;;;;;;;15.50;99.90;;;;;;1868845;75;20157;-71
2021/10/02 09:53:41;;;;;;;;;;;15.50;99.90;;;;;;1873097;75;20134;-71
2021/10/02 09:56:09;;;;;;;;;;;15.50;99.90;;;;;;1874769;75;20221;-70
2021/10/02 09:58:36;;;;;;;;;;;15.50;99.90;;;;;;1876261;75;20119;-71
2021/10/02 10:01:08;;;;;;;;;;;15.50;99.90;;;;;;1877825;75;20206;-71
2021/10/02 10:03:45;;;;;;;;;;;15.50;99.90;;;;;;1876368;75;20653;-70
2021/10/02 10:06:16;;;;;;;;;;;15.50;99.90;;;;;;1877225;75;20167;-71
2021/10/02 10:08:43;;;;;;;;;;;15.50;99.90;;;;;;1874881;75;20183;-72
2021/10/02 10:11:11;;;;;;;;;;;15.60;99.90;;;;;;1870934;75;20129;-71
2021/10/02 10:13:39;;;;;;;;;;;15.60;99.90;;;;;;1872810;75;20119;-71
2021/10/02 10:16:06;;;;;;;;;;;15.70;99.90;;;;;;1877325;75;20191;-71
2021/10/02 10:18:38;;;;;;;;;;;15.80;99.90;;;;;;1880539;75;20128;-71
2021/10/02 10:21:04;;;;;;;;;;;15.90;99.90;;;;;;1875889;75;20504;-72
2021/10/02 10:23:41;;;;;;;;;;;15.90;99.90;;;;;;1879783;75;20220;-71
2021/10/02 10:26:10;;;;;;;;;;;15.90;99.90;;;;;;1875662;76;20214;-71
2021/10/02 10:28:38;;;;;;;;;;;15.90;99.90;;;;;;1877432;75;20213;-71
2021/10/02 10:31:18;;;;;;;;;;;15.80;99.90;;;;;;1872873;75;20161;-71
2021/10/02 10:33:46;;;;;;;;;;;15.80;99.90;;;;;;1876293;75;20390;-72
2021/10/02 10:36:14;;;;;;;;;;;15.90;99.90;;;;;;1877066;75;20152;-71
2021/10/02 10:38:43;;;;;;;;;;;16.00;99.90;;;;;;1875300;75;20160;-71
2021/10/02 10:41:10;;;;;;;;;;;15.90;99.90;;;;;;1875923;75;20197;-72
2021/10/02 10:43:38;;;;;;;;;;;15.90;99.90;;;;;;1878527;75;20138;-72
2021/10/02 10:46:06;;;;;;;;;;;16.10;99.90;;;;;;1878480;75;20193;-72
2021/10/02 10:48:33;;;;;;;;;;;16.30;99.90;;;;;;1876371;75;20109;-72
2021/10/02 10:51:02;;;;;;;;;;;16.50;99.90;;;;;;1874639;75;20175;-73
2021/10/02 10:53:30;;;;;;;;;;;16.60;99.90;;;;;;1880194;75;20219;-72
2021/10/02 10:55:57;;;;;;;;;;;16.70;99.90;;;;;;1870509;75;20240;-72
2021/10/02 10:58:31;;;;;;;;;;;16.70;99.90;;;;;;1873690;75;20182;-71
2021/10/02 11:00:58;;;;;;;;;;;16.60;99.90;;;;;;1879261;75;20154;-72
2021/10/02 11:03:45;;;;;;;;;;;16.60;99.90;;;;;;1878753;75;20220;-71
2021/10/02 11:06:12;;;;;;;;;;;16.60;99.90;;;;;;1876813;75;20391;-70
2021/10/02 11:08:59;;;;;;;;;;;16.40;99.90;;;;;;1875758;75;20165;-71
2021/10/02 11:11:46;;;;;;;;;;;16.60;99.90;;;;;;1874801;75;20151;-70
2021/10/02 11:14:13;;;;;;;;;;;16.60;99.90;;;;;;1877093;75;20205;-71
2021/10/02 11:16:41;;;;;;;;;;;16.70;99.90;;;;;;1873179;75;20213;-71
2021/10/02 11:19:26;;;;;;;;;;;17.00;99.90;;;;;;1875898;75;20222;-72
2021/10/02 11:22:03;;;;;;;;;;;17.20;99.90;;;;;;1872357;75;20166;-71
2021/10/02 11:24:37;;;;;;;;;;;17.40;99.90;;;;;;1874202;75;20533;-71
2021/10/02 11:27:04;;;;;;;;;;;17.60;99.90;;;;;;1875229;75;20181;-71
2021/10/02 11:29:32;;;;;;;;;;;17.70;99.90;;;;;;1875345;75;20206;-71
2021/10/02 11:32:07;;;;;;;;;;;17.90;99.90;;;;;;1874432;75;20206;-71
2021/10/02 11:34:34;;;;;;;;;;;17.70;99.90;;;;;;1870593;75;20401;-71
2021/10/02 11:37:02;;;;;;;;;;;17.50;99.90;;;;;;1876024;75;20205;-70
2021/10/02 11:39:31;;;;;;;;;;;17.20;99.90;;;;;;1876991;75;20541;-71
2021/10/02 11:41:59;;;;;;;;;;;17.20;99.90;;;;;;1879972;75;20193;-71
2021/10/02 11:44:37;;;;;;;;;;;17.10;99.90;;;;;;1874710;75;20171;-71
2021/10/02 11:47:21;;;;;;;;;;;17.10;99.90;;;;;;1876298;75;20195;-71
2021/10/02 11:49:50;;;;;;;;;;;17.00;99.90;;;;;;1878029;75;20113;-71
2021/10/02 11:52:17;;;;;;;;;;;17.00;99.90;;;;;;1869648;75;20132;-71
2021/10/02 11:54:43;;;;;;;;;;;17.00;99.90;;;;;;1878035;75;20222;-70
2021/10/02 11:57:12;;;;;;;;;;;17.20;99.90;;;;;;1880454;75;20216;-71
2021/10/02 11:59:46;;;;;;;;;;;17.40;99.90;;;;;;1877418;75;20126;-71
2021/10/02 12:02:13;;;;;;;;;;;17.40;99.90;;;;;;1875531;75;20208;-71
2021/10/02 12:04:41;;;;;;;;;;;17.40;99.90;;;;;;1873565;75;20177;-70
2021/10/02 12:07:08;;;;;;;;;;;17.30;99.90;;;;;;1876259;75;20262;-70
2021/10/02 12:09:35;;;;;;;;;;;17.20;99.90;;;;;;1879067;75;20198;-71
2021/10/02 12:12:01;;;;;;;;;;;17.10;99.90;;;;;;1878398;75;20127;-69
2021/10/02 12:14:29;;;;;;;;;;;17.10;99.90;;;;;;1877746;75;20228;-71
2021/10/02 12:16:57;;;;;;;;;;;17.20;99.90;;;;;;1870137;75;20177;-70
2021/10/02 12:19:24;;;;;;;;;;;17.20;99.90;;;;;;1874731;75;20254;-70
2021/10/02 12:21:55;;;;;;;;;;;17.40;99.90;;;;;;1878449;75;20151;-71
2021/10/02 12:24:26;;;;;;;;;;;17.50;99.90;;;;;;1879783;75;20604;-70
2021/10/02 12:26:57;;;;;;;;;;;17.70;99.90;;;;;;1875276;75;20539;-71
2021/10/02 12:29:26;;;;;;;;;;;17.80;99.90;;;;;;1877472;75;20148;-73
2021/10/02 12:31:54;;;;;;;;;;;17.70;99.90;;;;;;1874710;75;20167;-73
2021/10/02 12:34:25;;;;;;;;;;;17.70;99.90;;;;;;1877386;75;20180;-72
2021/10/02 12:37:03;;;;;;;;;;;17.70;99.90;;;;;;1877861;75;20155;-72
2021/10/02 12:39:46;;;;;;;;;;;17.80;99.90;;;;;;1875541;75;20405;-72
2021/10/02 12:42:14;;;;;;;;;;;17.80;99.90;;;;;;1874726;75;20250;-71
2021/10/02 12:44:43;;;;;;;;;;;17.60;99.90;;;;;;1873857;75;20224;-71
2021/10/02 12:47:10;;;;;;;;;;;17.60;99.90;;;;;;1877937;75;20122;-71
2021/10/02 12:49:44;;;;;;;;;;;17.50;99.90;;;;;;1876335;75;20167;-71
2021/10/02 12:52:12;;;;;;;;;;;17.40;99.90;;;;;;1878681;75;20191;-71
2021/10/02 12:54:40;;;;;;;;;;;17.50;99.90;;;;;;1878171;74;20190;-72
2021/10/02 12:57:10;;;;;;;;;;;17.40;99.90;;;;;;1884514;76;20215;-72
2021/10/02 12:59:38;;;;;;;;;;;17.50;99.90;;;;;;1883760;76;20419;-72
2021/10/02 13:02:06;;;;;;;;;;;17.50;99.90;;;;;;1883595;76;20164;-72
2021/10/02 13:04:33;;;;;;;;;;;17.50;99.90;;;;;;1881249;75;20283;-72
2021/10/02 13:07:00;;;;;;;;;;;17.50;99.90;;;;;;1873532;76;20208;-72
2021/10/02 13:09:27;;;;;;;;;;;17.50;99.90;;;;;;1875118;76;20213;-72
2021/10/02 13:11:54;;;;;;;;;;;17.40;99.90;;;;;;1871909;76;20211;-72
2021/10/02 13:14:35;;;;;;;;;;;17.50;99.90;;;;;;1877500;76;20163;-72
2021/10/02 13:17:06;;;;;;;;;;;17.50;99.90;;;;;;1870964;75;20220;-72
2021/10/02 13:19:33;;;;;;;;;;;17.60;99.90;;;;;;1874760;76;20190;-72
2021/10/02 13:22:17;;;;;;;;;;;17.60;99.90;;;;;;1872525;75;20175;-72
2021/10/02 13:25:02;;;;;;;;;;;17.60;99.90;;;;;;1875981;76;20317;-72
2021/10/02 13:27:35;;;;;;;;;;;17.60;99.90;;;;;;1873248;76;20096;-72
2021/10/02 13:30:05;;;;;;;;;;;17.50;99.90;;;;;;1873600;76;20398;-72
2021/10/02 13:32:32;;;;;;;;;;;17.40;99.90;;;;;;1877565;74;20175;-72
2021/10/02 13:35:00;;;;;;;;;;;17.30;99.90;;;;;;1875401;76;20946;-72
2021/10/02 13:37:27;;;;;;;;;;;17.20;99.90;;;;;;1874879;76;20155;-72
2021/10/02 13:39:54;;;;;;;;;;;17.20;99.90;;;;;;1876395;76;20498;-72
2021/10/02 13:42:22;;;;;;;;;;;17.20;99.90;;;;;;1873595;76;20376;-72
2021/10/02 13:44:53;;;;;;;;;;;17.20;99.90;;;;;;1875448;74;20140;-72
2021/10/02 13:47:22;;;;;;;;;;;17.20;99.90;;;;;;1871102;76;20474;-72
2021/10/02 13:49:49;;;;;;;;;;;17.10;99.90;;;;;;1870397;76;20224;-72
2021/10/02 13:52:16;;;;;;;;;;;17.20;99.90;;;;;;1870988;76;20212;-72
2021/10/02 13:54:43;;;;;;;;;;;17.10;99.90;;;;;;1872757;76;20175;-72
2021/10/02 13:57:10;;;;;;;;;;;17.00;99.90;;;;;;1876211;74;20136;-72
2021/10/02 13:59:38;;;;;;;;;;;17.00;99.90;;;;;;1880246;76;20207;-72
2021/10/02 14:02:06;;;;;;;;;;;17.00;99.90;;;;;;1874964;76;20218;-72
2021/10/02 14:04:34;;;;;;;;;;;16.90;99.90;;;;;;1876414;76;20172;-72
2021/10/02 14:07:02;;;;;;;;;;;16.90;99.90;;;;;;1876815;76;20510;-72
2021/10/02 14:09:29;;;;;;;;;;;16.90;99.90;;;;;;1872153;76;20169;-72
2021/10/02 14:11:56;;;;;;;;;;;16.90;99.90;;;;;;1873310;74;20400;-72
2021/10/02 14:14:22;;;;;;;;;;;16.80;99.90;;;;;;1872897;76;20205;-72
2021/10/02 14:16:49;;;;;;;;;;;16.80;99.90;;;;;;1876057;76;20432;-72
2021/10/02 14:19:16;;;;;;;;;;;16.90;99.90;;;;;;1871729;76;20154;-72
2021/10/02 14:21:43;;;;;;;;;;;16.80;99.90;;;;;;1877973;76;20464;-73
2021/10/02 14:24:09;;;;;;;;;;;16.80;99.90;;;;;;1876097;76;20170;-72
2021/10/02 14:26:36;;;;;;;;;;;16.80;99.90;;;;;;1875410;74;20126;-72
2021/10/02 14:29:03;;;;;;;;;;;16.80;99.90;;;;;;1875820;76;20217;-72
2021/10/02 14:31:30;;;;;;;;;;;16.80;99.90;;;;;;1877592;76;20119;-72
2021/10/02 14:33:57;;;;;;;;;;;16.80;99.90;;;;;;1874020;76;20877;-72
2021/10/02 14:36:23;;;;;;;;;;;16.80;99.90;;;;;;1875315;76;20179;-72
2021/10/02 14:38:50;;;;;;;;;;;16.80;99.90;;;;;;1876339;76;20435;-72
2021/10/02 14:41:17;;;;;;;;;;;16.80;99.90;;;;;;1874076;76;20217;-72
2021/10/02 14:43:44;;;;;;;;;;;16.80;99.90;;;;;;1875065;74;20159;-72
2021/10/02 14:46:11;;;;;;;;;;;16.90;99.90;;;;;;1871276;76;20112;-72
2021/10/02 14:48:38;;;;;;;;;;;17.00;99.90;;;;;;1873872;76;20179;-73
2021/10/02 14:51:05;;;;;;;;;;;16.90;99.90;;;;;;1871435;76;20153;-72
2021/10/02 14:53:32;;;;;;;;;;;16.90;99.90;;;;;;1872907;76;20177;-72
2021/10/02 14:55:59;;;;;;;;;;;16.90;99.90;;;;;;1869982;75;20155;-72
2021/10/02 14:58:26;;;;;;;;;;;16.90;99.90;;;;;;1873220;75;20468;-72
2021/10/02 15:00:54;;;;;;;;;;;16.90;99.90;;;;;;1873654;74;20495;-72
2021/10/02 15:03:22;;;;;;;;;;;16.90;99.90;;;;;;1871074;75;20187;-72
2021/10/02 15:05:50;;;;;;;;;;;16.90;99.90;;;;;;1873545;74;20284;-72
2021/10/02 15:08:17;;;;;;;;;;;16.90;99.90;;;;;;1871080;76;20251;-72
2021/10/02 15:10:44;;;;;;;;;;;16.80;99.90;;;;;;1879088;76;20159;-72
2021/10/02 15:13:11;;;;;;;;;;;16.80;99.90;;;;;;1876668;76;20131;-72
2021/10/02 15:15:38;;;;;;;;;;;16.90;99.90;;;;;;1873763;76;20175;-72